Time;durP1;ratioP1;P1;durP2;ratioP2;P2;SDS_P1;SDS_P2;PMS_P1;PMS_P2;Temp;Humidity;BMP_temperature;BMP_pressure;BME280_temperature;BME280_humidity;BME280_pressure;Samples;Min_cycle;Max_cycle;Signal;HPM_P1;HPM_P2
2021/04/28 00:00:55;;;;;;;25.23;23.53;;;;;;;;;;5075844;28;20441;-83
2021/04/28 00:03:23;;;;;;;25.47;23.40;;;;;;;;;;5076061;28;20483;-82
2021/04/28 00:05:50;;;;;;;25.07;23.40;;;;;;;;;;5076152;28;20433;-82
2021/04/28 00:08:17;;;;;;;24.83;23.23;;;;;;;;;;5076180;28;20434;-82
2021/04/28 00:10:45;;;;;;;24.10;22.60;;;;;;;;;;5075740;28;20448;-82
2021/04/28 00:13:13;;;;;;;25.03;23.50;;;;;;;;;;5074973;28;20256;-82
2021/04/28 00:15:41;;;;;;;24.47;22.60;;;;;;;;;;5076046;28;20454;-82
2021/04/28 00:18:08;;;;;;;24.45;22.85;;;;;;;;;;5075599;28;20437;-82
2021/04/28 00:20:38;;;;;;;25.03;23.23;;;;;;;;;;5075857;28;20241;-83
2021/04/28 00:23:05;;;;;;;24.17;22.57;;;;;;;;;;5075593;28;20445;-83
2021/04/28 00:25:34;;;;;;;25.00;23.50;;;;;;;;;;5075786;28;20488;-83
2021/04/28 00:28:01;;;;;;;26.23;23.63;;;;;;;;;;5074658;28;20445;-82
2021/04/28 00:30:28;;;;;;;25.03;23.53;;;;;;;;;;5074222;28;20452;-82
2021/04/28 00:32:56;;;;;;;25.80;24.10;;;;;;;;;;5075415;28;20501;-82
2021/04/28 00:35:23;;;;;;;25.50;23.80;;;;;;;;;;5075569;28;20548;-82
2021/04/28 00:37:50;;;;;;;24.53;23.13;;;;;;;;;;5075218;28;20440;-83
2021/04/28 00:40:19;;;;;;;23.60;22.30;;;;;;;;;;5076219;28;20437;-83
2021/04/28 00:42:47;;;;;;;25.47;23.60;;;;;;;;;;5075552;28;20934;-83
2021/04/28 00:45:15;;;;;;;24.42;23.02;;;;;;;;;;5075397;28;20459;-83
2021/04/28 00:47:42;;;;;;;25.00;23.33;;;;;;;;;;5075453;28;20187;-82
2021/04/28 00:50:10;;;;;;;24.50;23.10;;;;;;;;;;5075185;28;20441;-83
2021/04/28 00:52:37;;;;;;;25.17;23.57;;;;;;;;;;5075140;28;20504;-82
2021/04/28 00:55:05;;;;;;;25.80;23.90;;;;;;;;;;5074497;28;20512;-83
2021/04/28 00:57:32;;;;;;;25.47;23.87;;;;;;;;;;5074765;28;20449;-83
2021/04/28 01:00:00;;;;;;;24.63;23.23;;;;;;;;;;5074763;28;20441;-82
2021/04/28 01:02:27;;;;;;;26.10;24.60;;;;;;;;;;5074608;28;20449;-82
2021/04/28 01:04:54;;;;;;;25.63;23.98;;;;;;;;;;5074124;28;20445;-82
2021/04/28 01:07:22;;;;;;;27.90;25.77;;;;;;;;;;5074893;28;20656;-83
2021/04/28 01:09:49;;;;;;;24.73;23.23;;;;;;;;;;5074847;28;20278;-83
2021/04/28 01:12:17;;;;;;;25.40;23.88;;;;;;;;;;5074806;28;20488;-82
2021/04/28 01:14:44;;;;;;;25.23;23.58;;;;;;;;;;5074595;28;20210;-82
2021/04/28 01:17:12;;;;;;;25.53;23.90;;;;;;;;;;5074823;28;20187;-82
2021/04/28 01:19:40;;;;;;;24.55;23.10;;;;;;;;;;5073323;28;20491;-83
2021/04/28 01:22:07;;;;;;;25.88;24.05;;;;;;;;;;5074644;28;20187;-83
2021/04/28 01:24:35;;;;;;;25.38;23.90;;;;;;;;;;5074126;28;20243;-83
2021/04/28 01:27:06;;;;;;;25.53;24.03;;;;;;;;;;5074869;28;20192;-83
2021/04/28 01:29:33;;;;;;;24.67;23.23;;;;;;;;;;5074592;28;20443;-82
2021/04/28 01:32:00;;;;;;;25.63;23.85;;;;;;;;;;5073308;28;20481;-82
2021/04/28 01:34:28;;;;;;;25.03;23.40;;;;;;;;;;5074607;28;20199;-83
2021/04/28 01:36:55;;;;;;;24.13;22.70;;;;;;;;;;5074299;28;20887;-82
2021/04/28 01:39:22;;;;;;;24.10;22.70;;;;;;;;;;5074547;28;20183;-82
2021/04/28 01:41:51;;;;;;;24.30;22.80;;;;;;;;;;5074451;28;20467;-83
2021/04/28 01:44:19;;;;;;;24.30;22.80;;;;;;;;;;5074533;28;20783;-83
2021/04/28 01:46:47;;;;;;;24.67;22.98;;;;;;;;;;5074126;28;20412;-83
2021/04/28 01:49:14;;;;;;;24.73;23.33;;;;;;;;;;5074484;28;20206;-83
2021/04/28 01:51:41;;;;;;;25.10;23.60;;;;;;;;;;5074336;28;20852;-83
2021/04/28 01:54:09;;;;;;;24.40;22.73;;;;;;;;;;5074112;28;20440;-83
2021/04/28 01:56:36;;;;;;;24.90;23.27;;;;;;;;;;5073152;28;20550;-83
2021/04/28 01:59:04;;;;;;;24.03;22.53;;;;;;;;;;5074280;28;20192;-83
2021/04/28 02:01:32;;;;;;;25.53;23.90;;;;;;;;;;5073048;28;20450;-83
2021/04/28 02:03:59;;;;;;;25.20;23.70;;;;;;;;;;5074312;28;20449;-83
2021/04/28 02:06:26;;;;;;;25.10;23.50;;;;;;;;;;5075228;28;20441;-83
2021/04/28 02:08:53;;;;;;;25.10;23.25;;;;;;;;;;5078071;28;20416;-83
2021/04/28 02:11:19;;;;;;;25.50;23.83;;;;;;;;;;5078040;28;20192;-83
2021/04/28 02:13:48;;;;;;;25.48;23.85;;;;;;;;;;5078374;28;20198;-83
2021/04/28 02:16:16;;;;;;;25.50;23.90;;;;;;;;;;5077967;28;20240;-83
2021/04/28 02:18:43;;;;;;;24.27;22.88;;;;;;;;;;5077867;28;20191;-83
2021/04/28 02:21:10;;;;;;;25.30;23.67;;;;;;;;;;5076758;28;20636;-83
2021/04/28 02:23:38;;;;;;;26.63;24.93;;;;;;;;;;5076631;28;20227;-83
2021/04/28 02:26:05;;;;;;;25.87;24.27;;;;;;;;;;5077738;28;20529;-83
2021/04/28 02:28:32;;;;;;;25.52;23.92;;;;;;;;;;5078062;28;20520;-82
2021/04/28 02:31:00;;;;;;;25.60;23.70;;;;;;;;;;5077892;28;20633;-83
2021/04/28 02:33:28;;;;;;;24.35;22.85;;;;;;;;;;5076654;28;20481;-83
2021/04/28 02:35:56;;;;;;;24.27;22.87;;;;;;;;;;5077936;28;20211;-83
2021/04/28 02:38:27;;;;;;;25.27;23.50;;;;;;;;;;5077477;28;20441;-83
2021/04/28 02:40:54;;;;;;;26.15;24.45;;;;;;;;;;5077476;28;20491;-83
2021/04/28 02:43:21;;;;;;;25.00;23.33;;;;;;;;;;5077428;28;20242;-83
2021/04/28 02:45:50;;;;;;;24.73;23.23;;;;;;;;;;5077724;28;20540;-83
2021/04/28 02:48:17;;;;;;;25.40;23.70;;;;;;;;;;5077620;28;20187;-83
2021/04/28 02:50:45;;;;;;;24.33;22.90;;;;;;;;;;5077228;28;20437;-83
2021/04/28 02:53:14;;;;;;;24.88;23.38;;;;;;;;;;5076182;28;20227;-82
2021/04/28 02:55:41;;;;;;;24.85;23.27;;;;;;;;;;5077397;28;20609;-82
2021/04/28 02:58:09;;;;;;;25.08;23.50;;;;;;;;;;5077577;28;20188;-82
2021/04/28 03:00:36;;;;;;;25.33;23.10;;;;;;;;;;5077112;28;20566;-84
2021/04/28 03:03:03;;;;;;;25.17;23.58;;;;;;;;;;5076967;28;20433;-84
2021/04/28 03:05:30;;;;;;;24.95;23.45;;;;;;;;;;5076736;28;20202;-82
2021/04/28 03:07:58;;;;;;;24.90;23.13;;;;;;;;;;5078796;28;20195;-84
2021/04/28 03:10:24;;;;;;;24.35;22.95;;;;;;;;;;5078035;28;20546;-82
2021/04/28 03:12:51;;;;;;;23.77;22.37;;;;;;;;;;5077088;28;20214;-82
2021/04/28 03:15:20;;;;;;;23.77;22.33;;;;;;;;;;5076816;28;20441;-82
2021/04/28 03:17:48;;;;;;;24.52;23.08;;;;;;;;;;5077002;28;20188;-83
2021/04/28 03:20:15;;;;;;;24.55;23.05;;;;;;;;;;5076726;28;20194;-83
2021/04/28 03:22:42;;;;;;;23.97;22.47;;;;;;;;;;5076692;28;20271;-83
2021/04/28 03:25:12;;;;;;;23.67;22.20;;;;;;;;;;5076507;28;20564;-83
2021/04/28 03:27:39;;;;;;;24.05;22.33;;;;;;;;;;5076611;28;20198;-83
2021/04/28 03:30:07;;;;;;;23.60;22.20;;;;;;;;;;5076529;28;20198;-83
2021/04/28 03:32:34;;;;;;;24.95;23.25;;;;;;;;;;5076427;28;20218;-83
2021/04/28 03:35:00;;;;;;;24.77;23.33;;;;;;;;;;5076803;28;20633;-83
2021/04/28 03:37:27;;;;;;;25.02;23.42;;;;;;;;;;5076973;28;20188;-83
2021/04/28 03:39:54;;;;;;;24.83;23.33;;;;;;;;;;5076461;28;20195;-83
2021/04/28 03:42:23;;;;;;;25.00;23.40;;;;;;;;;;5075280;28;20656;-83
2021/04/28 03:44:51;;;;;;;24.75;23.25;;;;;;;;;;5076678;28;20217;-83
2021/04/28 03:47:18;;;;;;;25.50;23.80;;;;;;;;;;5077090;28;20190;-83
2021/04/28 03:49:45;;;;;;;24.77;23.17;;;;;;;;;;5076167;28;20446;-83
2021/04/28 03:52:12;;;;;;;25.00;23.50;;;;;;;;;;5076088;28;20230;-83
2021/04/28 03:54:39;;;;;;;24.97;23.27;;;;;;;;;;5075267;28;20439;-83
2021/04/28 03:57:06;;;;;;;24.53;22.90;;;;;;;;;;5076307;28;20478;-84
2021/04/28 03:59:34;;;;;;;23.90;22.10;;;;;;;;;;5076241;28;20444;-83
2021/04/28 04:02:01;;;;;;;24.70;23.02;;;;;;;;;;5075979;28;20194;-83
2021/04/28 04:04:28;;;;;;;24.83;23.30;;;;;;;;;;5075824;28;20201;-83
2021/04/28 04:06:55;;;;;;;23.40;22.00;;;;;;;;;;5076313;28;20545;-83
2021/04/28 04:09:22;;;;;;;24.20;22.70;;;;;;;;;;5075574;28;20217;-83
2021/04/28 04:11:51;;;;;;;24.43;22.80;;;;;;;;;;5075645;28;20452;-83
2021/04/28 04:14:18;;;;;;;24.42;22.92;;;;;;;;;;5076061;28;20440;-83
2021/04/28 04:16:46;;;;;;;24.40;22.90;;;;;;;;;;5074600;28;20198;-81
2021/04/28 04:19:14;;;;;;;24.10;22.60;;;;;;;;;;5075626;28;20441;-81
2021/04/28 04:21:41;;;;;;;23.97;22.47;;;;;;;;;;5075311;28;20456;-83
2021/04/28 04:24:08;;;;;;;24.43;23.03;;;;;;;;;;5075417;28;20512;-83
2021/04/28 04:26:35;;;;;;;24.55;22.88;;;;;;;;;;5075442;28;20444;-83
2021/04/28 04:29:02;;;;;;;23.90;22.40;;;;;;;;;;5075022;28;20191;-81
2021/04/28 04:31:29;;;;;;;25.30;23.50;;;;;;;;;;5075352;28;20260;-81
2021/04/28 04:33:57;;;;;;;24.30;22.58;;;;;;;;;;5075450;28;20214;-81
2021/04/28 04:36:24;;;;;;;23.40;22.00;;;;;;;;;;5075352;28;20188;-81
2021/04/28 04:38:51;;;;;;;24.60;22.90;;;;;;;;;;5075017;28;20197;-81
2021/04/28 04:41:18;;;;;;;24.73;23.15;;;;;;;;;;5073681;28;20209;-80
2021/04/28 04:43:45;;;;;;;24.13;22.63;;;;;;;;;;5073943;28;20210;-81
2021/04/28 04:46:12;;;;;;;24.30;22.70;;;;;;;;;;5074829;28;20194;-81
2021/04/28 04:48:38;;;;;;;24.77;22.90;;;;;;;;;;5075094;28;20407;-81
2021/04/28 04:51:06;;;;;;;23.90;22.40;;;;;;;;;;5074983;28;20207;-81
2021/04/28 04:53:33;;;;;;;24.20;22.60;;;;;;;;;;5074912;28;20835;-81
2021/04/28 04:56:00;;;;;;;24.92;23.00;;;;;;;;;;5074974;28;20191;-82
2021/04/28 04:58:27;;;;;;;23.48;21.92;;;;;;;;;;5074955;28;20315;-78
2021/04/28 05:00:54;;;;;;;24.40;22.80;;;;;;;;;;5069891;28;20205;-77
2021/04/28 05:03:21;;;;;;;24.75;23.25;;;;;;;;;;5074006;28;20206;-77
2021/04/28 05:05:48;;;;;;;26.00;23.98;;;;;;;;;;5074153;28;20551;-77
2021/04/28 05:08:16;;;;;;;25.33;23.00;;;;;;;;;;5074130;28;20225;-77
2021/04/28 05:10:43;;;;;;;24.92;23.13;;;;;;;;;;5074219;28;20437;-77
2021/04/28 05:13:10;;;;;;;24.93;23.30;;;;;;;;;;5073962;28;20222;-77
2021/04/28 05:15:37;;;;;;;24.83;23.37;;;;;;;;;;5074169;28;20437;-77
2021/04/28 05:18:03;;;;;;;24.33;22.80;;;;;;;;;;5074063;28;20437;-78
2021/04/28 05:20:30;;;;;;;24.63;23.00;;;;;;;;;;5073501;28;20997;-78
2021/04/28 05:22:57;;;;;;;25.67;23.90;;;;;;;;;;5073809;28;20675;-77
2021/04/28 05:25:25;;;;;;;24.77;23.17;;;;;;;;;;5073714;28;20477;-77
2021/04/28 05:27:52;;;;;;;25.23;23.60;;;;;;;;;;5072808;28;20808;-77
2021/04/28 05:30:20;;;;;;;25.80;23.80;;;;;;;;;;5074077;28;20190;-77
2021/04/28 05:32:47;;;;;;;24.80;23.40;;;;;;;;;;5073806;28;20574;-77
2021/04/28 05:35:15;;;;;;;25.13;23.30;;;;;;;;;;5073720;28;20431;-78
2021/04/28 05:37:42;;;;;;;27.42;25.42;;;;;;;;;;5072602;28;20412;-77
2021/04/28 05:40:10;;;;;;;25.77;24.10;;;;;;;;;;5073499;28;20194;-78
2021/04/28 05:42:39;;;;;;;25.30;23.77;;;;;;;;;;5073000;28;20508;-77
2021/04/28 05:45:07;;;;;;;25.45;23.65;;;;;;;;;;5073602;28;20437;-77
2021/04/28 05:47:34;;;;;;;25.47;23.73;;;;;;;;;;5073608;28;20672;-77
2021/04/28 05:50:01;;;;;;;25.13;23.60;;;;;;;;;;5073831;28;20423;-77
2021/04/28 05:52:28;;;;;;;26.43;24.20;;;;;;;;;;5073340;28;20479;-77
2021/04/28 05:54:54;;;;;;;25.63;23.87;;;;;;;;;;5072711;28;20455;-77
2021/04/28 05:57:21;;;;;;;27.37;25.57;;;;;;;;;;5073704;28;20464;-77
2021/04/28 05:59:49;;;;;;;25.20;23.30;;;;;;;;;;5073515;28;20464;-77
2021/04/28 06:02:16;;;;;;;26.40;24.60;;;;;;;;;;5073667;28;20525;-77
2021/04/28 06:04:43;;;;;;;26.00;24.40;;;;;;;;;;5073403;28;20446;-77
2021/04/28 06:07:10;;;;;;;26.87;24.87;;;;;;;;;;5073462;28;20907;-77
2021/04/28 06:09:37;;;;;;;26.10;24.17;;;;;;;;;;5073621;28;20739;-77
2021/04/28 06:12:04;;;;;;;25.63;24.03;;;;;;;;;;5072995;28;20817;-77
2021/04/28 06:14:31;;;;;;;25.70;24.10;;;;;;;;;;5073372;28;20433;-77
2021/04/28 06:17:00;;;;;;;25.90;23.93;;;;;;;;;;5073634;28;20420;-77
2021/04/28 06:19:27;;;;;;;26.07;24.43;;;;;;;;;;5072196;28;20809;-76
2021/04/28 06:21:53;;;;;;;26.43;24.83;;;;;;;;;;5073573;28;20437;-78
2021/04/28 06:24:20;;;;;;;25.27;23.50;;;;;;;;;;5073046;28;20521;-77
2021/04/28 06:26:47;;;;;;;25.20;23.40;;;;;;;;;;5073541;28;20423;-77
2021/04/28 06:29:14;;;;;;;26.53;24.73;;;;;;;;;;5073461;28;20419;-77
2021/04/28 06:31:41;;;;;;;26.57;24.77;;;;;;;;;;5072944;28;20438;-78
2021/04/28 06:34:09;;;;;;;25.93;24.43;;;;;;;;;;5073402;28;20801;-77
2021/04/28 06:36:36;;;;;;;27.33;25.53;;;;;;;;;;5073060;28;20441;-78
2021/04/28 06:39:04;;;;;;;25.43;23.80;;;;;;;;;;5071100;28;20457;-77
2021/04/28 06:41:31;;;;;;;25.10;23.30;;;;;;;;;;5073359;28;20433;-77
2021/04/28 06:43:58;;;;;;;25.57;23.87;;;;;;;;;;5072966;28;20442;-78
2021/04/28 06:46:25;;;;;;;26.73;25.13;;;;;;;;;;5072856;28;20477;-77
2021/04/28 06:48:51;;;;;;;26.27;24.67;;;;;;;;;;5073129;28;20516;-78
2021/04/28 06:51:19;;;;;;;27.20;25.20;;;;;;;;;;5072829;28;20450;-77
2021/04/28 06:53:47;;;;;;;26.73;24.93;;;;;;;;;;5076480;28;20902;-77
2021/04/28 06:56:13;;;;;;;27.73;26.03;;;;;;;;;;5076212;28;20897;-76
2021/04/28 06:58:41;;;;;;;26.80;25.10;;;;;;;;;;5076244;28;20907;-77
2021/04/28 07:01:08;;;;;;;25.97;24.20;;;;;;;;;;5076812;28;20499;-77
2021/04/28 07:03:35;;;;;;;25.50;24.00;;;;;;;;;;5076609;28;20496;-78
2021/04/28 07:06:02;;;;;;;26.40;24.80;;;;;;;;;;5077280;28;20446;-79
2021/04/28 07:08:30;;;;;;;25.60;24.00;;;;;;;;;;5076054;28;20431;-77
2021/04/28 07:10:57;;;;;;;26.63;24.50;;;;;;;;;;5076820;28;20459;-78
2021/04/28 07:13:24;;;;;;;26.10;24.47;;;;;;;;;;5076364;28;20452;-76
2021/04/28 07:15:51;;;;;;;27.87;25.77;;;;;;;;;;5075314;28;20437;-78
2021/04/28 07:18:19;;;;;;;26.53;24.73;;;;;;;;;;5078016;28;20778;-79
2021/04/28 07:20:47;;;;;;;26.30;24.70;;;;;;;;;;5076779;28;20458;-76
2021/04/28 07:23:14;;;;;;;26.70;24.90;;;;;;;;;;5075868;28;20434;-76
2021/04/28 07:25:42;;;;;;;26.10;24.40;;;;;;;;;;5076212;28;20441;-78
2021/04/28 07:28:09;;;;;;;28.03;26.23;;;;;;;;;;5076378;28;20785;-77
2021/04/28 07:30:37;;;;;;;26.77;24.83;;;;;;;;;;5076351;28;20429;-77
2021/04/28 07:33:04;;;;;;;26.50;24.80;;;;;;;;;;5074969;28;20565;-77
2021/04/28 07:35:31;;;;;;;27.43;25.63;;;;;;;;;;5075947;28;20408;-77
2021/04/28 07:37:58;;;;;;;27.30;25.50;;;;;;;;;;5076128;28;20441;-77
2021/04/28 07:40:25;;;;;;;26.30;24.53;;;;;;;;;;5076139;28;20797;-76
2021/04/28 07:42:53;;;;;;;26.27;24.43;;;;;;;;;;5074901;28;20420;-77
2021/04/28 07:45:20;;;;;;;26.40;24.70;;;;;;;;;;5075799;28;20439;-77
2021/04/28 07:47:47;;;;;;;27.77;25.77;;;;;;;;;;5076026;28;20438;-77
2021/04/28 07:50:14;;;;;;;27.00;24.80;;;;;;;;;;5075884;28;20462;-76
2021/04/28 07:52:41;;;;;;;27.60;25.70;;;;;;;;;;5075475;28;20519;-78
2021/04/28 07:55:08;;;;;;;28.73;26.73;;;;;;;;;;5075433;28;20927;-78
2021/04/28 07:57:35;;;;;;;28.10;26.27;;;;;;;;;;5075202;28;20457;-77
2021/04/28 08:00:05;;;;;;;27.20;25.40;;;;;;;;;;5075678;28;20438;-78
2021/04/28 08:02:32;;;;;;;27.73;25.93;;;;;;;;;;5075637;28;20437;-80
2021/04/28 08:04:58;;;;;;;29.47;27.33;;;;;;;;;;5074494;28;20449;-77
2021/04/28 08:07:25;;;;;;;27.07;25.37;;;;;;;;;;5075701;28;20434;-77
2021/04/28 08:09:52;;;;;;;27.63;25.77;;;;;;;;;;5075292;28;20413;-78
2021/04/28 08:12:19;;;;;;;27.90;26.00;;;;;;;;;;5075424;28;20813;-76
2021/04/28 08:14:46;;;;;;;28.10;26.13;;;;;;;;;;5075514;28;20753;-76
2021/04/28 08:17:14;;;;;;;27.50;25.70;;;;;;;;;;5075474;28;20456;-76
2021/04/28 08:19:42;;;;;;;26.90;25.07;;;;;;;;;;5075185;28;20461;-76
2021/04/28 08:22:09;;;;;;;29.10;26.87;;;;;;;;;;5075291;28;20435;-79
2021/04/28 08:24:36;;;;;;;28.10;26.40;;;;;;;;;;5073591;28;20504;-77
2021/04/28 08:27:03;;;;;;;27.63;25.73;;;;;;;;;;5075187;28;20408;-76
2021/04/28 08:29:30;;;;;;;28.80;27.00;;;;;;;;;;5074924;28;20529;-77
2021/04/28 08:31:56;;;;;;;27.00;25.20;;;;;;;;;;5074471;28;20455;-77
2021/04/28 08:34:24;;;;;;;28.63;26.63;;;;;;;;;;5075054;28;20458;-75
2021/04/28 08:36:51;;;;;;;29.03;26.93;;;;;;;;;;5074753;28;20438;-76
2021/04/28 08:39:18;;;;;;;28.07;26.20;;;;;;;;;;5073378;28;20475;-77
2021/04/28 08:41:48;;;;;;;29.33;27.33;;;;;;;;;;5074667;28;20984;-74
2021/04/28 08:44:15;;;;;;;28.73;26.37;;;;;;;;;;5074849;28;20441;-77
2021/04/28 08:46:43;;;;;;;28.93;26.80;;;;;;;;;;5074822;28;20471;-78
2021/04/28 08:49:10;;;;;;;28.63;26.73;;;;;;;;;;5072900;28;20906;-76
2021/04/28 08:51:38;;;;;;;29.50;26.20;;;;;;;;;;5074412;28;20952;-76
2021/04/28 08:54:05;;;;;;;29.17;26.97;;;;;;;;;;5074668;28;20482;-76
2021/04/28 08:56:33;;;;;;;27.33;25.53;;;;;;;;;;5074833;28;20417;-76
2021/04/28 08:59:04;;;;;;;27.70;25.87;;;;;;;;;;5074537;28;20433;-76
2021/04/28 09:01:32;;;;;;;28.73;26.63;;;;;;;;;;5074125;28;20521;-76
2021/04/28 09:03:59;;;;;;;29.17;27.07;;;;;;;;;;5074590;28;20420;-76
2021/04/28 09:06:30;;;;;;;28.47;26.23;;;;;;;;;;5074135;28;20783;-75
2021/04/28 09:08:58;;;;;;;29.30;27.30;;;;;;;;;;5074402;28;20448;-76
2021/04/28 09:11:35;;;;;;;28.17;26.37;;;;;;;;;;5074126;28;20438;-75
2021/04/28 09:14:11;;;;;;;31.83;29.33;;;;;;;;;;5073962;28;20477;-78
2021/04/28 09:16:38;;;;;;;29.33;27.27;;;;;;;;;;5073788;28;20491;-77
2021/04/28 09:19:06;;;;;;;28.30;26.30;;;;;;;;;;5074229;28;20487;-78
2021/04/28 09:21:49;;;;;;;28.90;26.90;;;;;;;;;;5073940;28;20923;-77
2021/04/28 09:24:21;;;;;;;29.37;27.40;;;;;;;;;;5073749;28;20481;-78
2021/04/28 09:26:49;;;;;;;31.03;28.80;;;;;;;;;;5073613;28;20412;-78
2021/04/28 09:29:19;;;;;;;29.87;27.87;;;;;;;;;;5073771;28;20795;-78
2021/04/28 09:32:04;;;;;;;30.67;28.47;;;;;;;;;;5073614;28;20429;-78
2021/04/28 09:34:38;;;;;;;31.40;29.23;;;;;;;;;;5074005;28;20433;-79
2021/04/28 09:37:09;;;;;;;31.63;29.00;;;;;;;;;;5073894;28;20419;-78
2021/04/28 09:39:41;;;;;;;30.57;28.43;;;;;;;;;;5074037;28;20434;-80
2021/04/28 09:42:08;;;;;;;31.10;29.00;;;;;;;;;;5073909;28;20746;-81
2021/04/28 09:44:37;;;;;;;30.93;28.93;;;;;;;;;;5074048;28;20434;-78
2021/04/28 09:47:06;;;;;;;30.63;28.50;;;;;;;;;;5072445;28;21007;-77
2021/04/28 09:49:46;;;;;;;31.10;29.00;;;;;;;;;;5073538;28;20416;-77
2021/04/28 09:52:14;;;;;;;28.87;27.00;;;;;;;;;;5073544;28;20437;-79
2021/04/28 09:54:43;;;;;;;29.70;27.80;;;;;;;;;;5072499;28;20409;-77
2021/04/28 09:57:10;;;;;;;31.93;29.43;;;;;;;;;;5073757;28;20432;-78
2021/04/28 09:59:41;;;;;;;30.20;28.10;;;;;;;;;;5074138;28;20420;-79
2021/04/28 10:02:09;;;;;;;30.63;28.63;;;;;;;;;;5073511;28;20424;-79
2021/04/28 10:04:36;;;;;;;30.50;28.40;;;;;;;;;;5072262;28;20451;-76
2021/04/28 10:07:02;;;;;;;31.37;29.00;;;;;;;;;;5073651;28;20412;-77
2021/04/28 10:09:31;;;;;;;30.67;28.67;;;;;;;;;;5073560;28;20558;-76
2021/04/28 10:12:00;;;;;;;30.40;28.20;;;;;;;;;;5073556;28;20426;-77
2021/04/28 10:14:27;;;;;;;29.93;27.73;;;;;;;;;;5073281;28;20434;-77
2021/04/28 10:16:55;;;;;;;31.17;28.87;;;;;;;;;;5073619;28;20418;-77
2021/04/28 10:19:23;;;;;;;29.17;27.17;;;;;;;;;;5072101;28;20518;-78
2021/04/28 10:21:50;;;;;;;30.70;28.40;;;;;;;;;;5073501;28;20491;-77
2021/04/28 10:24:18;;;;;;;31.07;28.53;;;;;;;;;;5072665;28;20506;-77
2021/04/28 10:26:45;;;;;;;29.83;27.47;;;;;;;;;;5073312;28;20438;-77
2021/04/28 10:29:15;;;;;;;29.10;27.10;;;;;;;;;;5076026;28;20420;-77
2021/04/28 10:31:42;;;;;;;30.03;27.93;;;;;;;;;;5058925;28;20417;-77
2021/04/28 10:34:10;;;;;;;30.40;28.23;;;;;;;;;;5077331;28;20477;-77
2021/04/28 10:36:37;;;;;;;28.37;26.47;;;;;;;;;;5077292;28;20489;-78
2021/04/28 10:39:04;;;;;;;30.37;27.97;;;;;;;;;;5076882;28;20438;-77
2021/04/28 10:41:38;;;;;;;29.53;27.47;;;;;;;;;;5077315;28;20428;-78
2021/04/28 10:44:05;;;;;;;31.60;29.30;;;;;;;;;;5076968;28;20446;-77
2021/04/28 10:46:34;;;;;;;30.40;28.03;;;;;;;;;;5077096;28;20434;-78
2021/04/28 10:49:17;;;;;;;29.33;27.13;;;;;;;;;;5075803;28;20520;-78
2021/04/28 10:51:46;;;;;;;29.63;27.30;;;;;;;;;;5076768;28;20466;-78
2021/04/28 10:54:28;;;;;;;31.90;29.70;;;;;;;;;;5075535;28;20486;-78
2021/04/28 10:56:58;;;;;;;30.53;28.60;;;;;;;;;;5073818;28;20783;-78
2021/04/28 10:59:32;;;;;;;30.37;27.97;;;;;;;;;;5076522;28;20423;-78
2021/04/28 11:02:08;;;;;;;29.73;27.70;;;;;;;;;;5076489;28;20412;-78
2021/04/28 11:04:35;;;;;;;30.20;28.20;;;;;;;;;;5076527;28;20425;-78
2021/04/28 11:07:02;;;;;;;32.23;29.83;;;;;;;;;;5076393;28;20931;-77
2021/04/28 11:09:28;;;;;;;29.77;27.67;;;;;;;;;;5076627;28;20405;-78
2021/04/28 11:11:57;;;;;;;31.93;29.53;;;;;;;;;;5077734;28;20624;-78
2021/04/28 11:14:30;;;;;;;31.90;29.50;;;;;;;;;;5076174;28;20454;-77
2021/04/28 11:16:58;;;;;;;30.47;28.43;;;;;;;;;;5075536;28;20487;-78
2021/04/28 11:19:27;;;;;;;31.33;29.10;;;;;;;;;;5076221;28;20475;-79
2021/04/28 11:22:13;;;;;;;29.13;27.07;;;;;;;;;;5076222;28;20409;-78
2021/04/28 11:24:59;;;;;;;28.30;26.50;;;;;;;;;;5075933;28;20494;-78
2021/04/28 11:27:42;;;;;;;27.73;25.93;;;;;;;;;;5075963;28;20424;-78
2021/04/28 11:30:20;;;;;;;27.60;25.70;;;;;;;;;;5075897;28;20434;-77
2021/04/28 11:33:02;;;;;;;27.30;25.43;;;;;;;;;;5075224;28;20472;-78
2021/04/28 11:35:30;;;;;;;26.60;24.90;;;;;;;;;;5075366;28;20421;-78
2021/04/28 11:38:03;;;;;;;26.30;24.50;;;;;;;;;;5075818;28;20415;-77
2021/04/28 11:40:30;;;;;;;27.70;26.00;;;;;;;;;;5073744;28;20425;-77
2021/04/28 11:42:57;;;;;;;27.53;25.57;;;;;;;;;;5075948;28;20470;-78
2021/04/28 11:45:32;;;;;;;27.60;25.87;;;;;;;;;;5075792;28;20911;-78
2021/04/28 11:47:59;;;;;;;27.50;25.77;;;;;;;;;;5074718;28;21063;-77
2021/04/28 11:50:26;;;;;;;27.23;25.03;;;;;;;;;;5076092;28;20966;-80
2021/04/28 11:52:54;;;;;;;27.57;25.80;;;;;;;;;;5075826;28;20515;-78
2021/04/28 11:55:22;;;;;;;27.00;25.27;;;;;;;;;;5075406;28;20424;-78
2021/04/28 11:57:49;;;;;;;28.30;26.50;;;;;;;;;;5075457;28;20937;-78
2021/04/28 12:00:18;;;;;;;27.47;25.53;;;;;;;;;;5075675;28;20413;-78
2021/04/28 12:02:45;;;;;;;26.20;24.60;;;;;;;;;;5075188;28;20484;-78
2021/04/28 12:05:12;;;;;;;25.60;23.90;;;;;;;;;;5075320;28;20424;-79
2021/04/28 12:07:47;;;;;;;27.60;25.73;;;;;;;;;;5075272;28;20388;-79
2021/04/28 12:10:17;;;;;;;26.60;24.67;;;;;;;;;;5075312;28;20458;-79
2021/04/28 12:12:44;;;;;;;25.13;23.53;;;;;;;;;;5074121;28;20951;-78
2021/04/28 12:15:14;;;;;;;25.83;24.13;;;;;;;;;;5075363;28;20426;-78
2021/04/28 12:17:42;;;;;;;25.20;23.60;;;;;;;;;;5075224;28;20417;-79
2021/04/28 12:20:10;;;;;;;25.67;23.87;;;;;;;;;;5076110;28;20406;-77
2021/04/28 12:22:37;;;;;;;26.97;25.03;;;;;;;;;;5076048;28;20433;-78
2021/04/28 12:25:05;;;;;;;26.97;25.17;;;;;;;;;;5074649;28;20548;-79
2021/04/28 12:27:33;;;;;;;25.90;24.30;;;;;;;;;;5074903;28;20504;-78
2021/04/28 12:30:01;;;;;;;26.30;24.50;;;;;;;;;;5075448;28;20425;-78
2021/04/28 12:32:29;;;;;;;26.03;24.53;;;;;;;;;;5073835;28;20922;-78
2021/04/28 12:35:18;;;;;;;26.50;24.77;;;;;;;;;;5074827;28;20448;-78
2021/04/28 12:37:58;;;;;;;28.67;26.27;;;;;;;;;;5070333;28;20436;-78
2021/04/28 12:40:32;;;;;;;27.53;25.43;;;;;;;;;;5075072;28;20438;-78
2021/04/28 12:43:00;;;;;;;26.97;25.07;;;;;;;;;;5074746;28;20408;-78
2021/04/28 12:45:27;;;;;;;30.13;28.00;;;;;;;;;;5074820;28;20443;-78
2021/04/28 12:48:05;;;;;;;28.07;25.97;;;;;;;;;;5074727;28;20445;-78
2021/04/28 12:50:33;;;;;;;28.07;26.17;;;;;;;;;;5076796;28;20451;-78
2021/04/28 12:53:05;;;;;;;28.53;26.40;;;;;;;;;;5076005;28;20525;-78
2021/04/28 12:55:33;;;;;;;29.23;27.20;;;;;;;;;;5074725;28;20409;-78
2021/04/28 12:58:02;;;;;;;28.97;27.07;;;;;;;;;;5074559;28;20418;-77
2021/04/28 13:00:33;;;;;;;28.27;26.47;;;;;;;;;;5074005;28;20432;-77
2021/04/28 13:03:13;;;;;;;27.27;25.57;;;;;;;;;;5074211;28;20494;-78
2021/04/28 13:05:41;;;;;;;30.17;28.00;;;;;;;;;;5074436;28;20460;-77
2021/04/28 13:08:18;;;;;;;30.27;27.97;;;;;;;;;;5074215;28;20410;-77
2021/04/28 13:10:58;;;;;;;30.03;27.90;;;;;;;;;;5073738;28;20434;-79
2021/04/28 13:13:31;;;;;;;27.80;25.83;;;;;;;;;;5072562;28;20842;-76
2021/04/28 13:15:58;;;;;;;28.30;26.00;;;;;;;;;;5073973;28;20492;-76
2021/04/28 13:18:24;;;;;;;27.40;25.70;;;;;;;;;;5075356;28;20448;-76
2021/04/28 13:20:51;;;;;;;28.33;26.00;;;;;;;;;;5072781;28;20476;-77
2021/04/28 13:23:19;;;;;;;29.40;27.50;;;;;;;;;;5079742;28;20434;-78
2021/04/28 13:25:53;;;;;;;27.60;25.90;;;;;;;;;;5076072;28;20472;-78
2021/04/28 13:28:34;;;;;;;27.70;25.80;;;;;;;;;;5077982;28;20462;-77
2021/04/28 13:31:15;;;;;;;28.37;26.40;;;;;;;;;;5085854;28;20452;-77
2021/04/28 13:33:41;;;;;;;28.40;26.60;;;;;;;;;;5092832;28;20854;-77
2021/04/28 13:36:19;;;;;;;29.20;27.13;;;;;;;;;;5092566;28;20449;-78
2021/04/28 13:38:50;;;;;;;27.57;25.57;;;;;;;;;;5093705;28;20483;-78
2021/04/28 13:41:17;;;;;;;26.47;24.63;;;;;;;;;;5094214;28;20436;-78
2021/04/28 13:43:45;;;;;;;28.13;26.10;;;;;;;;;;5092496;28;20925;-77
2021/04/28 13:46:12;;;;;;;27.57;25.13;;;;;;;;;;5093809;28;20908;-77
2021/04/28 13:48:39;;;;;;;26.67;24.97;;;;;;;;;;5093945;28;20480;-77
2021/04/28 13:51:06;;;;;;;27.10;25.40;;;;;;;;;;5093548;28;20515;-78
2021/04/28 13:53:32;;;;;;;27.43;25.67;;;;;;;;;;5093603;28;20458;-77
2021/04/28 13:55:59;;;;;;;27.57;25.77;;;;;;;;;;5093638;28;20894;-78
2021/04/28 13:58:27;;;;;;;27.70;25.90;;;;;;;;;;5092266;28;20426;-78
2021/04/28 14:00:54;;;;;;;27.40;25.60;;;;;;;;;;5093697;28;20454;-78
2021/04/28 14:03:21;;;;;;;28.80;26.87;;;;;;;;;;5092657;28;20430;-78
2021/04/28 14:05:48;;;;;;;28.00;26.20;;;;;;;;;;5093824;28;20428;-79
2021/04/28 14:08:15;;;;;;;28.17;26.37;;;;;;;;;;5093502;28;20413;-78
2021/04/28 14:10:42;;;;;;;27.70;25.93;;;;;;;;;;5093729;28;20409;-78
2021/04/28 14:13:09;;;;;;;27.47;25.77;;;;;;;;;;5093728;28;20452;-78
2021/04/28 14:15:36;;;;;;;28.47;26.70;;;;;;;;;;5092166;28;20788;-77
2021/04/28 14:18:04;;;;;;;28.73;26.83;;;;;;;;;;5093555;28;20515;-78
2021/04/28 14:20:31;;;;;;;28.83;26.63;;;;;;;;;;5093286;28;20413;-78
2021/04/28 14:22:58;;;;;;;27.43;25.70;;;;;;;;;;5093405;28;20444;-77